Time;durP1;ratioP1;P1;durP2;ratioP2;P2;SDS_P1;SDS_P2;PMS_P1;PMS_P2;Temp;Humidity;BMP_temperature;BMP_pressure;BME280_temperature;BME280_humidity;BME280_pressure;Samples;Min_cycle;Max_cycle;Signal;HPM_P1;HPM_P2
2021/08/04 00:01:40;;;;;;;18.98;9.07;;;;;;;16.23;70.68;101045.22;5064243;28;20051;-75
2021/08/04 00:04:07;;;;;;;20.85;9.35;;;;;;;16.20;70.16;101037.53;5072048;28;20106;-75
2021/08/04 00:06:34;;;;;;;20.00;8.43;;;;;;;16.24;70.47;101038.81;5073806;28;20542;-75
2021/08/04 00:09:01;;;;;;;25.63;9.27;;;;;;;16.10;70.09;101032.47;5059741;28;20099;-74
2021/08/04 00:11:28;;;;;;;19.33;8.70;;;;;;;16.15;70.38;101039.09;5035844;28;20064;-75
2021/08/04 00:13:55;;;;;;;18.08;8.88;;;;;;;16.21;70.80;101030.31;5052449;28;20065;-74
2021/08/04 00:16:21;;;;;;;21.15;8.25;;;;;;;16.28;71.03;101033.94;5035246;28;20051;-74
2021/08/04 00:18:48;;;;;;;17.48;8.77;;;;;;;16.26;71.18;101034.13;5053220;28;20051;-75
2021/08/04 00:21:15;;;;;;;21.10;8.40;;;;;;;16.19;71.41;101027.84;5051440;28;20064;-74
2021/08/04 00:23:42;;;;;;;18.65;8.45;;;;;;;16.21;71.86;101027.66;5052868;28;20044;-75
2021/08/04 00:26:08;;;;;;;17.30;7.95;;;;;;;16.14;71.92;101022.22;5051782;28;20072;-74
2021/08/04 00:28:35;;;;;;;18.35;7.70;;;;;;;16.10;72.23;101029.78;5035532;28;20457;-75
2021/08/04 00:31:02;;;;;;;18.67;8.05;;;;;;;16.08;72.52;101030.97;5052944;28;20047;-75
2021/08/04 00:33:29;;;;;;;20.33;7.80;;;;;;;16.12;72.51;101030.44;5051576;28;20064;-75
2021/08/04 00:35:56;;;;;;;22.30;8.43;;;;;;;16.09;72.30;101022.75;5051520;28;20040;-74
2021/08/04 00:38:23;;;;;;;16.95;8.30;;;;;;;15.99;72.79;101024.03;5052314;28;20152;-74
2021/08/04 00:40:50;;;;;;;19.33;8.65;;;;;;;15.96;72.48;101022.56;5053209;28;20488;-74
2021/08/04 00:43:17;;;;;;;18.23;8.27;;;;;;;15.89;72.64;101025.13;5051786;28;20045;-74
2021/08/04 00:45:44;;;;;;;17.38;8.68;;;;;;;15.84;72.75;101019.50;5051580;28;20048;-74
2021/08/04 00:48:12;;;;;;;15.30;7.90;;;;;;;15.82;72.44;101018.84;5052969;28;20041;-75
2021/08/04 00:50:39;;;;;;;18.17;8.48;;;;;;;15.78;72.87;101016.75;5051646;28;20144;-75
2021/08/04 00:53:25;;;;;;;19.50;8.27;;;;;;;15.76;72.91;101019.59;5052605;28;20505;-74
2021/08/04 00:55:53;;;;;;;22.50;8.13;;;;;;;15.70;72.61;101010.41;5052779;28;20045;-74
2021/08/04 00:58:28;;;;;;;18.48;8.15;;;;;;;15.67;72.81;101016.13;5052029;28;20044;-74
2021/08/04 01:01:09;;;;;;;18.20;7.97;;;;;;;15.60;73.11;101020.53;5034917;28;20049;-74
2021/08/04 01:03:42;;;;;;;24.10;8.50;;;;;;;15.57;73.06;101022.72;5050874;28;20045;-75
2021/08/04 01:06:32;;;;;;;18.60;8.13;;;;;;;15.51;73.28;101022.44;5051133;28;20452;-74
2021/08/04 01:08:59;;;;;;;16.23;8.00;;;;;;;15.46;73.47;101007.94;5052616;28;20516;-75
2021/08/04 01:11:30;;;;;;;16.23;8.15;;;;;;;15.44;73.41;101028.69;5051608;28;20044;-74
2021/08/04 01:14:01;;;;;;;16.73;7.90;;;;;;;15.28;73.81;101027.81;5052234;28;20055;-74
2021/08/04 01:16:31;;;;;;;17.57;8.33;;;;;;;15.35;73.70;101033.25;5051983;28;20132;-74
2021/08/04 01:22:01;;;;;;;17.33;8.43;;;;;;;15.35;73.14;101035.91;5130501;27;20390;-74
2021/08/04 01:27:26;;;;;;;13.88;8.35;;;;;;;15.34;73.94;101043.13;5130147;27;20334;-73
2021/08/04 01:29:55;;;;;;;17.38;8.93;;;;;;;15.32;74.02;101045.13;5109370;28;20036;-73
2021/08/04 01:32:24;;;;;;;17.95;8.35;;;;;;;15.26;74.35;101045.84;5108518;28;20484;-75
2021/08/04 01:34:53;;;;;;;21.65;9.00;;;;;;;15.21;74.68;101042.03;5109841;28;20048;-75
2021/08/04 01:37:24;;;;;;;18.40;8.57;;;;;;;15.14;74.78;101036.59;5108112;28;20111;-75
2021/08/04 01:39:52;;;;;;;19.13;8.88;;;;;;;15.06;75.20;101039.28;5109802;28;20040;-75
2021/08/04 01:42:20;;;;;;;15.80;8.63;;;;;;;15.01;75.19;101047.00;5108192;28;20147;-75
2021/08/04 01:44:48;;;;;;;19.30;9.95;;;;;;;14.98;75.58;101041.00;5107744;28;20040;-74
2021/08/04 01:47:16;;;;;;;19.17;8.98;;;;;;;14.94;75.79;101039.69;5108046;28;20118;-74
2021/08/04 01:49:44;;;;;;;20.55;9.13;;;;;;;14.85;76.62;101040.75;5108170;28;20035;-73
2021/08/04 01:52:11;;;;;;;20.88;9.18;;;;;;;14.79;76.44;101038.78;5109497;28;20044;-73
2021/08/04 01:54:39;;;;;;;19.60;9.93;;;;;;;14.76;76.74;101039.94;5108209;28;20047;-73
2021/08/04 01:57:06;;;;;;;20.35;9.20;;;;;;;14.75;77.03;101030.28;5107777;28;20044;-73
2021/08/04 01:59:33;;;;;;;19.80;9.40;;;;;;;14.70;77.09;101039.84;5090980;28;20470;-73
2021/08/04 02:02:21;;;;;;;22.20;10.10;;;;;;;14.67;77.27;101037.50;5116765;28;20491;-73
2021/08/04 02:04:51;;;;;;;21.85;10.45;;;;;;;14.63;77.72;101039.69;5130328;27;20134;-73
2021/08/04 02:07:33;;;;;;;23.60;9.85;;;;;;;14.65;77.38;101028.84;5128511;28;20235;-74
2021/08/04 02:10:06;;;;;;;23.05;10.80;;;;;;;14.56;77.43;101030.66;5087180;28;20044;-73
2021/08/04 02:12:41;;;;;;;23.48;10.65;;;;;;;14.55;77.28;101020.97;5089069;28;20063;-73
2021/08/04 02:15:11;;;;;;;21.60;10.75;;;;;;;14.48;77.88;101031.53;5088667;28;20044;-73
2021/08/04 02:17:43;;;;;;;21.02;10.82;;;;;;;14.50;78.02;101018.84;5088443;28;20044;-73
2021/08/04 02:23:00;;;;;;;20.00;10.25;;;;;;;14.47;78.10;101027.19;5089626;27;20381;-73
2021/08/04 02:25:53;;;;;;;20.10;10.13;;;;;;;14.44;78.31;101019.53;5071622;28;20044;-73
2021/08/04 02:28:24;;;;;;;18.45;10.25;;;;;;;14.49;78.42;101019.03;5089345;28;20048;-73
2021/08/04 02:30:52;;;;;;;18.75;10.23;;;;;;;14.41;78.30;101027.91;5089209;28;20040;-73
2021/08/04 02:33:22;;;;;;;19.00;10.23;;;;;;;14.32;78.73;101015.59;5089672;28;20047;-74
2021/08/04 02:35:49;;;;;;;24.50;10.63;;;;;;;14.32;78.91;101021.75;5059166;28;20044;-75
2021/08/04 02:38:16;;;;;;;22.58;11.05;;;;;;;14.30;79.10;101021.09;5087713;28;20040;-75
2021/08/04 02:40:43;;;;;;;23.92;11.57;;;;;;;14.35;79.45;101012.56;5087907;28;20108;-74
2021/08/04 02:43:11;;;;;;;23.05;11.88;;;;;;;14.38;79.07;101013.03;5069736;28;20043;-74
2021/08/04 02:45:39;;;;;;;21.95;11.82;;;;;;;14.38;79.17;101012.22;5088827;28;20133;-75
2021/08/04 02:48:06;;;;;;;21.02;10.68;;;;;;;14.38;79.24;101012.22;5088809;28;20198;-74
2021/08/04 02:50:38;;;;;;;19.25;10.82;;;;;;;14.37;78.81;101008.72;5071316;28;20068;-75
2021/08/04 02:53:06;;;;;;;25.10;10.93;;;;;;;14.41;78.88;101006.53;5088373;28;20041;-74
2021/08/04 02:55:32;;;;;;;20.58;11.07;;;;;;;14.38;79.22;101005.03;5087662;28;20041;-74
2021/08/04 02:57:59;;;;;;;21.25;10.55;;;;;;;14.35;79.13;101015.22;5086520;28;20127;-74
2021/08/04 03:00:26;;;;;;;22.73;10.77;;;;;;;14.34;78.96;101011.72;5087336;28;20044;-75
2021/08/04 03:02:53;;;;;;;23.75;11.57;;;;;;;14.32;79.10;101011.06;5087534;28;20048;-74
2021/08/04 03:05:20;;;;;;;22.85;11.05;;;;;;;14.29;78.79;101019.41;5087705;28;20051;-74
2021/08/04 03:07:47;;;;;;;22.48;11.07;;;;;;;14.25;79.25;101017.28;5088696;28;20056;-74
2021/08/04 03:10:14;;;;;;;23.25;10.85;;;;;;;14.20;79.23;101017.78;5088694;28;20044;-74
2021/08/04 03:12:40;;;;;;;18.17;11.32;;;;;;;14.20;79.36;101021.25;5070643;28;20042;-74
2021/08/04 03:15:08;;;;;;;21.35;11.30;;;;;;;14.18;79.31;101020.59;5086714;28;20127;-74
2021/08/04 03:17:35;;;;;;;24.95;11.38;;;;;;;14.17;79.37;101029.63;5070263;28;20048;-74
2021/08/04 03:20:02;;;;;;;21.30;10.75;;;;;;;14.09;79.38;101024.31;5088343;28;20037;-74
2021/08/04 03:22:29;;;;;;;23.08;11.88;;;;;;;14.05;79.50;101022.97;5105220;28;20415;-74
2021/08/04 03:24:55;;;;;;;23.80;11.95;;;;;;;14.06;79.64;101027.34;5090415;28;20044;-74
2021/08/04 03:27:22;;;;;;;22.98;11.73;;;;;;;13.99;79.85;101023.69;5090235;28;20783;-74
2021/08/04 03:29:49;;;;;;;20.88;11.20;;;;;;;13.99;79.47;101023.69;5090536;28;20040;-74
2021/08/04 03:32:16;;;;;;;24.05;12.18;;;;;;;13.97;79.60;101023.84;5088359;28;20412;-74
2021/08/04 03:34:43;;;;;;;22.33;11.88;;;;;;;13.92;80.20;101025.34;5094973;28;20496;-74
2021/08/04 03:37:10;;;;;;;24.52;12.82;;;;;;;13.86;80.45;101026.88;5094701;28;20040;-74
2021/08/04 03:39:37;;;;;;;21.13;12.15;;;;;;;13.78;80.61;101032.19;5074370;28;20044;-74
2021/08/04 03:42:04;;;;;;;22.65;12.57;;;;;;;13.87;80.82;101031.19;5094751;28;20481;-74
2021/08/04 03:44:31;;;;;;;30.52;14.25;;;;;;;13.89;80.69;101025.69;5094835;28;20040;-74
2021/08/04 03:46:58;;;;;;;27.10;13.63;;;;;;;13.83;80.92;101032.53;5094531;28;20527;-74
2021/08/04 03:49:24;;;;;;;21.65;12.48;;;;;;;13.81;80.62;101026.53;5094851;28;20401;-75
2021/08/04 03:51:52;;;;;;;26.55;13.15;;;;;;;13.77;81.13;101028.69;5094917;28;20128;-74
2021/08/04 03:54:19;;;;;;;23.40;13.45;;;;;;;13.70;80.81;101024.19;5059442;28;20055;-74
2021/08/04 03:56:45;;;;;;;27.58;13.60;;;;;;;13.75;81.04;101030.69;5076306;28;20044;-75
2021/08/04 03:59:12;;;;;;;23.63;13.00;;;;;;;13.68;81.39;101032.38;5094406;28;20055;-74
2021/08/04 04:01:39;;;;;;;19.50;13.05;;;;;;;13.66;80.59;101028.19;5073197;28;20400;-74
2021/08/04 04:04:05;;;;;;;25.40;12.88;;;;;;;13.59;80.87;101030.72;5072848;28;20456;-74
2021/08/04 04:06:32;;;;;;;21.65;12.77;;;;;;;13.57;81.04;101032.69;5093663;28;20137;-74
2021/08/04 04:08:59;;;;;;;22.35;13.38;;;;;;;13.61;80.92;101028.72;5042258;28;20056;-74
2021/08/04 04:11:26;;;;;;;28.83;14.18;;;;;;;13.62;80.72;101019.69;5059654;28;20040;-75
2021/08/04 04:13:52;;;;;;;24.83;14.77;;;;;;;13.60;80.86;101024.34;5059490;28;20068;-74
2021/08/04 04:16:19;;;;;;;24.75;14.27;;;;;;;13.61;81.25;101045.53;5075570;28;20040;-75
2021/08/04 04:18:46;;;;;;;29.92;14.25;;;;;;;13.62;81.62;101046.34;5094118;28;20416;-74
2021/08/04 04:21:13;;;;;;;24.38;14.48;;;;;;;13.63;81.56;101048.84;5093376;28;20052;-75
2021/08/04 04:23:40;;;;;;;37.63;16.65;;;;;;;13.67;81.38;101048.53;5094013;28;20524;-74
2021/08/04 04:26:07;;;;;;;29.30;15.70;;;;;;;13.70;81.42;101048.19;5093707;28;20040;-74
2021/08/04 04:28:34;;;;;;;32.38;17.33;;;;;;;13.76;81.39;101048.34;5075985;28;20040;-75
2021/08/04 04:31:00;;;;;;;31.13;16.42;;;;;;;13.76;81.92;101058.19;5075819;28;20044;-75
2021/08/04 04:33:27;;;;;;;33.53;17.60;;;;;;;13.79;81.82;101055.19;5092246;28;20044;-75
2021/08/04 04:35:55;;;;;;;30.55;17.90;;;;;;;13.85;82.07;101057.19;5075116;28;20130;-74
2021/08/04 04:38:22;;;;;;;32.60;18.60;;;;;;;13.94;82.11;101064.16;5075107;28;20044;-74
2021/08/04 04:40:50;;;;;;;32.13;19.55;;;;;;;13.99;82.12;101061.00;5093972;28;20071;-74
2021/08/04 04:43:17;;;;;;;36.85;20.10;;;;;;;14.01;81.71;101070.50;5093712;28;20135;-74
2021/08/04 04:45:43;;;;;;;36.38;20.45;;;;;;;13.99;81.53;101069.84;5092814;28;20044;-74
2021/08/04 04:48:10;;;;;;;34.90;20.55;;;;;;;14.11;81.53;101072.16;5074739;28;20496;-74
2021/08/04 04:50:37;;;;;;;33.60;19.92;;;;;;;14.18;80.99;101078.47;5058446;28;20066;-75
2021/08/04 04:53:04;;;;;;;33.33;20.48;;;;;;;14.24;80.89;101074.28;5073622;28;20071;-74
2021/08/04 04:55:30;;;;;;;31.20;20.67;;;;;;;14.45;79.84;101074.59;5073327;28;20040;-75
2021/08/04 04:57:59;;;;;;;31.02;19.95;;;;;;;14.43;80.26;101075.78;5054584;28;20044;-75
2021/08/04 05:00:26;;;;;;;36.20;20.02;;;;;;;14.49;79.90;101083.06;5072804;28;20127;-74
2021/08/04 05:02:53;;;;;;;34.55;20.13;;;;;;;14.47;79.84;101077.91;5054821;28;20032;-75
2021/08/04 05:05:20;;;;;;;31.88;20.13;;;;;;;14.71;79.32;101085.03;5037054;28;20099;-74
2021/08/04 05:07:46;;;;;;;34.80;20.42;;;;;;;14.62;79.42;101071.88;5056776;28;20048;-74
2021/08/04 05:10:14;;;;;;;36.00;20.13;;;;;;;14.61;79.65;101086.22;5058641;28;20050;-74
2021/08/04 05:12:41;;;;;;;36.20;19.42;;;;;;;14.60;79.88;101080.06;5093254;28;20036;-75
2021/08/04 05:15:08;;;;;;;31.77;19.65;;;;;;;14.46;79.77;101078.06;5093250;28;20079;-74
2021/08/04 05:17:35;;;;;;;38.35;20.58;;;;;;;14.46;79.53;101081.59;5091922;28;20051;-74
2021/08/04 05:20:04;;;;;;;35.28;20.08;;;;;;;14.50;79.39;101082.91;5041381;28;20063;-74
2021/08/04 05:22:30;;;;;;;32.55;20.83;;;;;;;14.48;79.49;101084.94;5057742;28;20074;-74
2021/08/04 05:24:57;;;;;;;35.58;21.15;;;;;;;14.46;79.65;101084.28;5058404;28;20123;-74
2021/08/04 05:27:24;;;;;;;35.22;21.02;;;;;;;14.49;79.85;101099.91;5074687;28;20397;-74
2021/08/04 05:29:51;;;;;;;32.63;20.33;;;;;;;14.51;79.81;101084.56;5074700;28;20520;-74
2021/08/04 05:32:17;;;;;;;32.00;20.98;;;;;;;14.55;79.57;101085.06;5090601;28;20048;-74
2021/08/04 05:34:44;;;;;;;29.00;20.15;;;;;;;14.50;80.28;101088.25;5074694;28;20501;-74
2021/08/04 05:37:11;;;;;;;37.47;20.67;;;;;;;14.47;80.01;101085.91;5074070;28;20043;-74
2021/08/04 05:39:37;;;;;;;38.13;21.50;;;;;;;14.56;80.01;101082.22;5092342;28;20047;-74
2021/08/04 05:42:04;;;;;;;37.42;21.23;;;;;;;14.56;79.97;101076.88;5092262;28;20533;-74
2021/08/04 05:44:32;;;;;;;33.75;20.45;;;;;;;14.62;79.64;101082.56;5074455;28;20040;-74
2021/08/04 05:46:59;;;;;;;33.63;19.98;;;;;;;14.66;79.47;101087.41;5091634;28;20040;-74
2021/08/04 05:49:26;;;;;;;31.90;21.17;;;;;;;14.70;79.84;101086.06;5092060;28;20465;-74
2021/08/04 05:51:53;;;;;;;35.63;19.90;;;;;;;14.73;79.58;101084.84;5074471;28;20032;-74
2021/08/04 05:54:21;;;;;;;34.60;20.83;;;;;;;14.78;79.61;101088.66;5074294;28;20446;-74
2021/08/04 05:56:47;;;;;;;35.95;20.42;;;;;;;14.72;79.42;101088.56;5073888;28;20051;-74
2021/08/04 05:59:15;;;;;;;36.33;20.10;;;;;;;14.91;78.79;101089.97;5073402;28;20047;-74
2021/08/04 06:01:42;;;;;;;33.50;20.80;;;;;;;14.99;78.09;101092.59;5092131;28;20517;-74
2021/08/04 06:04:09;;;;;;;35.78;20.77;;;;;;;15.00;78.23;101096.09;5047147;28;20045;-74
2021/08/04 06:06:36;;;;;;;31.80;20.33;;;;;;;14.85;78.53;101091.50;5055935;28;20106;-74
2021/08/04 06:09:03;;;;;;;36.25;21.25;;;;;;;14.91;78.87;101104.13;5066282;28;20044;-74
2021/08/04 06:11:29;;;;;;;31.52;20.38;;;;;;;14.99;78.77;101108.63;5074254;28;20060;-74
2021/08/04 06:13:56;;;;;;;36.35;21.00;;;;;;;15.24;77.78;101100.47;5091487;28;20247;-74
2021/08/04 06:16:23;;;;;;;33.15;21.85;;;;;;;15.08;78.31;101102.25;5091720;28;20046;-74
2021/08/04 06:18:49;;;;;;;38.67;21.98;;;;;;;15.09;78.73;101103.88;5091624;28;20036;-74
2021/08/04 06:21:16;;;;;;;40.25;22.80;;;;;;;15.22;78.44;101107.84;5053901;28;20060;-74
2021/08/04 06:23:47;;;;;;;34.05;21.55;;;;;;;15.06;78.44;101106.06;5072219;28;20043;-74
2021/08/04 06:26:15;;;;;;;36.13;22.13;;;;;;;15.10;78.07;101116.25;5053564;28;20131;-74
2021/08/04 06:28:43;;;;;;;39.97;23.15;;;;;;;15.13;78.61;101115.91;5070090;28;20123;-74
2021/08/04 06:31:10;;;;;;;36.13;22.45;;;;;;;15.13;78.66;101120.41;5068534;28;20048;-74
2021/08/04 06:33:37;;;;;;;39.13;22.23;;;;;;;15.19;78.58;101119.72;5070468;28;20490;-74
2021/08/04 06:36:04;;;;;;;40.03;22.60;;;;;;;15.35;78.18;101119.63;5071442;28;20127;-73
2021/08/04 06:38:30;;;;;;;40.90;21.75;;;;;;;15.39;77.77;101117.44;5071372;28;20040;-75
2021/08/04 06:40:57;;;;;;;37.25;22.40;;;;;;;15.41;77.94;101115.41;5072042;28;20064;-75
2021/08/04 06:43:25;;;;;;;38.38;22.52;;;;;;;15.53;77.66;101121.19;5070276;28;20040;-75
2021/08/04 06:45:51;;;;;;;34.08;21.98;;;;;;;15.64;77.39;101118.09;5071362;28;20064;-75
2021/08/04 06:48:18;;;;;;;33.83;22.13;;;;;;;15.79;76.95;101118.19;5069860;28;20079;-75
2021/08/04 06:50:45;;;;;;;37.67;22.67;;;;;;;15.71;77.00;101120.88;5071832;28;20041;-75
2021/08/04 06:53:12;;;;;;;34.85;22.48;;;;;;;15.64;77.03;101123.44;5070449;28;20041;-75
2021/08/04 06:55:39;;;;;;;33.95;21.70;;;;;;;15.80;76.55;101117.16;5071388;28;20086;-75
2021/08/04 06:58:06;;;;;;;36.13;21.75;;;;;;;15.83;76.63;101118.69;5069649;28;20095;-75
2021/08/04 07:00:32;;;;;;;35.95;22.13;;;;;;;15.87;76.24;101119.97;5071490;28;20040;-75
2021/08/04 07:02:59;;;;;;;38.38;21.85;;;;;;;15.97;75.89;101125.91;5053009;28;20044;-75
2021/08/04 07:05:26;;;;;;;39.22;21.67;;;;;;;16.01;76.04;101123.69;5069779;28;20051;-74
2021/08/04 07:07:53;;;;;;;40.30;21.92;;;;;;;15.96;75.67;101124.25;5071318;28;20036;-75
2021/08/04 07:10:19;;;;;;;37.20;22.35;;;;;;;16.10;75.12;101118.09;5073841;28;20048;-75
2021/08/04 07:12:48;;;;;;;35.58;21.27;;;;;;;16.21;74.34;101122.19;5073760;28;20465;-75
2021/08/04 07:15:14;;;;;;;32.95;20.77;;;;;;;16.11;74.74;101122.41;5040789;28;20131;-74
2021/08/04 07:17:46;;;;;;;36.88;21.65;;;;;;;16.17;75.23;101117.34;5074183;28;20045;-75
2021/08/04 07:20:14;;;;;;;35.90;21.77;;;;;;;16.27;74.77;101118.75;5073697;28;20052;-74
2021/08/04 07:22:41;;;;;;;34.95;19.40;;;;;;;16.30;74.31;101120.25;5072763;28;20049;-74
2021/08/04 07:25:10;;;;;;;31.48;19.58;;;;;;;16.27;74.07;101118.75;5073822;28;20064;-74
2021/08/04 07:27:37;;;;;;;33.00;19.77;;;;;;;16.28;74.34;101114.22;5073143;28;20043;-74
2021/08/04 07:30:07;;;;;;;36.65;19.88;;;;;;;16.26;74.69;101114.44;5056730;28;20127;-75
2021/08/04 07:32:35;;;;;;;31.70;19.75;;;;;;;16.43;75.23;101109.75;5073625;28;20086;-74
2021/08/04 07:35:03;;;;;;;33.03;20.02;;;;;;;16.26;74.14;101105.56;5072764;28;20527;-75
2021/08/04 07:37:31;;;;;;;35.38;19.80;;;;;;;16.26;74.15;101110.91;5074191;28;20040;-74
2021/08/04 07:39:59;;;;;;;41.40;21.30;;;;;;;16.30;74.67;101113.06;5054424;28;20494;-75
2021/08/04 07:42:27;;;;;;;34.67;19.67;;;;;;;16.28;74.45;101112.41;5054682;28;20037;-75
2021/08/04 07:44:55;;;;;;;33.90;19.98;;;;;;;16.37;74.26;101123.03;5059174;28;20119;-75
2021/08/04 07:47:22;;;;;;;34.22;21.60;;;;;;;16.41;73.85;101118.97;5073742;28;20454;-75
2021/08/04 07:49:49;;;;;;;33.38;20.73;;;;;;;16.54;73.82;101119.16;5074247;28;20132;-75
2021/08/04 07:52:16;;;;;;;34.05;20.80;;;;;;;16.55;73.48;101122.66;5074513;28;20037;-75
2021/08/04 07:54:43;;;;;;;34.25;21.42;;;;;;;16.66;73.66;101115.03;5074360;28;20041;-75
2021/08/04 07:57:11;;;;;;;36.65;22.15;;;;;;;16.72;72.36;101124.16;5073705;28;20048;-75
2021/08/04 07:59:37;;;;;;;35.55;21.35;;;;;;;16.71;72.76;101109.09;5072606;28;20044;-75
2021/08/04 08:02:04;;;;;;;34.22;22.95;;;;;;;16.82;72.05;101105.13;5069210;28;20054;-71
2021/08/04 08:04:32;;;;;;;36.45;23.25;;;;;;;16.80;72.64;101101.78;5053014;28;20513;-71
2021/08/04 08:07:00;;;;;;;40.08;24.30;;;;;;;16.87;72.31;101094.72;5051818;28;20770;-71
2021/08/04 08:09:27;;;;;;;36.08;24.15;;;;;;;17.03;71.98;101089.13;5059272;28;20033;-70
2021/08/04 08:11:58;;;;;;;37.92;22.35;;;;;;;17.22;71.16;101095.72;5054554;28;20493;-71
2021/08/04 08:14:26;;;;;;;43.95;23.92;;;;;;;17.21;70.86;101095.94;5054525;28;20132;-71
2021/08/04 08:16:53;;;;;;;41.22;23.60;;;;;;;17.38;69.28;101088.47;5067827;28;20556;-71
2021/08/04 08:19:19;;;;;;;39.65;24.35;;;;;;;17.25;69.14;101091.84;5065952;28;20069;-71
2021/08/04 08:21:47;;;;;;;39.55;24.48;;;;;;;17.35;69.17;101088.84;5039476;28;20049;-71
2021/08/04 08:24:15;;;;;;;36.95;23.83;;;;;;;17.48;68.31;101090.84;5053086;28;20482;-71
2021/08/04 08:26:42;;;;;;;40.17;23.70;;;;;;;17.51;68.91;101088.59;5051574;28;20414;-71
2021/08/04 08:29:09;;;;;;;32.40;21.67;;;;;;;17.73;68.32;101081.38;5054283;28;20119;-71
2021/08/04 08:31:37;;;;;;;40.10;22.80;;;;;;;17.86;66.64;101083.38;5066944;28;20079;-72
2021/08/04 08:34:05;;;;;;;38.47;21.83;;;;;;;18.09;66.05;101085.84;5071376;28;20052;-71
2021/08/04 08:36:33;;;;;;;36.00;22.17;;;;;;;18.03;65.85;101087.44;5068455;28;20051;-71
2021/08/04 08:39:02;;;;;;;36.83;22.15;;;;;;;18.03;65.67;101084.78;5072789;28;20044;-71
2021/08/04 08:41:29;;;;;;;38.67;22.05;;;;;;;18.11;65.94;101077.59;5064516;28;20529;-71
2021/08/04 08:43:56;;;;;;;38.75;21.48;;;;;;;18.09;66.50;101077.78;5065638;28;20044;-70
2021/08/04 08:46:32;;;;;;;45.83;23.05;;;;;;;18.16;66.26;101077.84;5064620;28;20047;-71
2021/08/04 08:49:01;;;;;;;35.50;21.70;;;;;;;18.18;66.36;101083.84;5071932;28;20131;-71
2021/08/04 08:51:29;;;;;;;38.75;24.17;;;;;;;18.55;63.94;101081.78;5064753;28;20033;-75
2021/08/04 08:53:56;;;;;;;38.83;24.88;;;;;;;18.54;63.85;101082.84;5067436;28;20812;-72
2021/08/04 08:56:23;;;;;;;44.17;23.98;;;;;;;18.60;64.03;101080.16;5066851;28;20032;-71
2021/08/04 08:58:54;;;;;;;46.35;23.23;;;;;;;18.55;64.48;101068.34;5072271;28;20048;-71
2021/08/04 09:01:38;;;;;;;38.05;22.83;;;;;;;18.86;63.78;101077.84;5065457;28;20091;-71
2021/08/04 09:04:10;;;;;;;44.13;22.27;;;;;;;18.84;63.64;101074.53;5062788;28;20047;-71
2021/08/04 09:06:49;;;;;;;35.78;20.80;;;;;;;18.87;63.96;101076.81;5071621;28;20041;-71
2021/08/04 09:09:21;;;;;;;35.85;21.50;;;;;;;19.11;62.94;101070.06;5066560;28;20072;-70
2021/08/04 09:11:52;;;;;;;38.58;21.58;;;;;;;19.27;63.31;101080.47;5069318;28;20041;-71
2021/08/04 09:14:31;;;;;;;41.55;21.67;;;;;;;19.35;62.40;101077.56;5065886;28;20116;-72
2021/08/04 09:17:04;;;;;;;40.55;21.10;;;;;;;19.37;62.19;101075.53;5069409;28;20051;-72
2021/08/04 09:19:36;;;;;;;33.53;20.35;;;;;;;19.69;59.73;101073.06;5062142;28;20047;-72
2021/08/04 09:22:13;;;;;;;34.65;20.83;;;;;;;19.76;59.49;101070.41;5081042;28;20514;-72
2021/08/04 09:27:54;;;;;;;38.47;20.48;;;;;;;19.92;59.62;101070.00;5136130;27;20127;-71
2021/08/04 09:30:30;;;;;;;33.58;19.50;;;;;;;19.96;59.87;101067.72;5127212;28;20055;-72
2021/08/04 09:33:23;;;;;;;36.28;20.95;;;;;;;20.05;58.00;101060.25;5116013;27;20068;-71
2021/08/04 09:35:53;;;;;;;34.45;19.60;;;;;;;19.98;59.54;101051.34;5127306;28;20150;-71
2021/08/04 09:38:21;;;;;;;39.33;20.98;;;;;;;20.01;59.22;101049.06;5123391;28;20047;-73
2021/08/04 09:41:10;;;;;;;32.97;20.30;;;;;;;19.85;60.28;101046.81;5123153;28;20042;-71
2021/08/04 09:43:37;;;;;;;27.65;16.05;;;;;;;19.76;58.47;101040.81;5117947;28;20604;-71
2021/08/04 09:46:04;;;;;;;28.45;14.65;;;;;;;20.00;57.75;101043.91;5128850;27;20050;-71
2021/08/04 09:48:31;;;;;;;25.15;13.65;;;;;;;19.93;57.19;101047.41;5104032;28;20035;-71
2021/08/04 09:51:01;;;;;;;20.92;12.45;;;;;;;20.03;57.46;101046.16;5109327;28;20040;-71
2021/08/04 09:53:33;;;;;;;26.35;12.55;;;;;;;20.04;56.44;101054.03;5120642;28;20365;-71
2021/08/04 09:58:50;;;;;;;25.50;15.02;;;;;;;19.75;55.96;101047.22;5125707;27;20330;-70
2021/08/04 10:01:20;;;;;;;25.88;15.02;;;;;;;19.96;56.29;101046.19;5114749;28;20043;-70
2021/08/04 10:04:07;;;;;;;21.50;12.90;;;;;;;20.18;55.34;101041.38;5102292;28;20113;-69
2021/08/04 10:06:35;;;;;;;21.15;10.45;;;;;;;20.13;55.28;101038.47;5117160;27;20407;-70
2021/08/04 10:09:05;;;;;;;20.70;11.27;;;;;;;20.31;54.56;101038.63;5118640;28;20035;-71
2021/08/04 10:11:32;;;;;;;19.50;8.27;;;;;;;20.13;54.32;101038.47;5127893;27;20506;-71
2021/08/04 10:14:00;;;;;;;18.50;8.23;;;;;;;20.14;54.88;101037.44;5118321;27;20054;-70
2021/08/04 10:16:32;;;;;;;18.02;8.18;;;;;;;20.55;56.93;101035.47;5103199;28;20044;-71
2021/08/04 10:19:01;;;;;;;19.15;9.57;;;;;;;20.29;54.73;101029.94;5141284;27;20073;-73
2021/08/04 10:21:28;;;;;;;21.10;9.05;;;;;;;20.26;54.93;101037.63;5080486;28;20447;-72
2021/08/04 10:23:55;;;;;;;19.27;9.13;;;;;;;20.08;54.63;101032.88;5106053;27;20037;-72
2021/08/04 10:26:22;;;;;;;20.85;10.32;;;;;;;19.74;56.71;101035.63;5103022;28;20071;-73
2021/08/04 10:28:52;;;;;;;24.17;11.93;;;;;;;19.89;60.19;101039.97;5125387;28;20071;-73
2021/08/04 10:31:20;;;;;;;19.15;10.20;;;;;;;19.93;55.84;101027.75;5110813;28;20530;-73
2021/08/04 10:33:47;;;;;;;21.08;9.90;;;;;;;19.87;57.40;101032.09;5109168;28;20472;-73
2021/08/04 10:36:19;;;;;;;22.00;10.07;;;;;;;19.91;59.06;101035.19;5117674;28;20439;-73
2021/08/04 10:41:26;;;;;;;17.80;9.55;;;;;;;19.92;54.80;101034.19;5089032;27;20385;-73
2021/08/04 10:43:56;;;;;;;20.52;10.23;;;;;;;20.01;54.15;101034.75;5090712;28;20051;-72
2021/08/04 10:46:34;;;;;;;18.10;9.23;;;;;;;19.89;56.94;101039.97;5086107;28;20118;-72
2021/08/04 10:52:06;;;;;;;16.23;8.82;;;;;;;20.16;54.43;101027.28;5068774;28;20378;-73
2021/08/04 10:54:32;;;;;;;18.00;9.55;;;;;;;20.19;54.84;101026.03;5068179;28;20094;-72
2021/08/04 10:59:40;;;;;;;18.67;9.23;;;;;;;20.45;53.30;101023.28;5130102;27;20514;-72
2021/08/04 11:02:15;;;;;;;19.08;9.13;;;;;;;20.49;51.56;101015.59;5128660;28;20050;-73
2021/08/04 11:04:51;;;;;;;17.25;9.00;;;;;;;20.53;52.71;101019.50;5128250;27;20046;-74
2021/08/04 11:07:19;;;;;;;17.77;8.07;;;;;;;20.52;56.07;101026.78;5128156;28;20035;-72
2021/08/04 11:09:53;;;;;;;16.65;8.98;;;;;;;20.57;55.10;101019.91;5127382;28;20438;-73
2021/08/04 11:12:40;;;;;;;22.75;10.10;;;;;;;20.61;53.28;101018.47;5129674;28;20046;-72
2021/08/04 11:15:28;;;;;;;18.13;9.63;;;;;;;20.78;52.66;101014.25;5109622;28;20036;-73
2021/08/04 11:18:13;;;;;;;18.88;9.68;;;;;;;20.77;53.98;101014.47;5127122;27;20031;-73
2021/08/04 11:21:09;;;;;;;18.00;9.60;;;;;;;20.86;54.18;101010.47;5127067;28;20046;-73
2021/08/04 11:23:47;;;;;;;35.75;13.48;;;;;;;20.82;54.78;101011.97;5128015;28;20113;-73
2021/08/04 11:26:36;;;;;;;27.45;10.85;;;;;;;20.61;55.40;101013.94;5127925;28;20074;-74
2021/08/04 11:29:06;;;;;;;21.33;8.90;;;;;;;20.77;52.03;101007.19;5127736;28;20031;-73
2021/08/04 11:31:33;;;;;;;19.38;9.23;;;;;;;20.58;53.60;101000.84;5127888;28;20043;-73
2021/08/04 11:34:34;;;;;;;17.35;9.25;;;;;;;20.61;51.64;100997.75;5125789;28;20092;-73
2021/08/04 11:37:02;;;;;;;38.42;10.65;;;;;;;20.55;54.82;100995.03;5127174;28;20039;-73
2021/08/04 11:39:29;;;;;;;24.02;10.18;;;;;;;20.57;54.07;100991.09;5127664;28;20035;-73
2021/08/04 11:41:56;;;;;;;19.17;9.32;;;;;;;20.59;53.00;100980.94;5110904;28;20118;-72
2021/08/04 11:44:26;;;;;;;139.70;22.38;;;;;;;20.73;54.88;100995.19;5127146;28;20040;-73